Time;durP1;ratioP1;P1;durP2;ratioP2;P2;SDS_P1;SDS_P2;PMS_P1;PMS_P2;Temp;Humidity;BMP_temperature;BMP_pressure;BME280_temperature;BME280_humidity;BME280_pressure;Samples;Min_cycle;Max_cycle;Signal;HPM_P1;HPM_P2
2021/11/07 00:16:10;;;;;;;4.32;3.90;;;7.10;99.90;;;;;;7360012;19;20348;-79
2021/11/07 00:28:49;;;;;;;4.38;3.97;;;7.10;99.90;;;;;;7376041;19;20304;-82
2021/11/07 01:04:36;;;;;;;4.75;4.32;;;7.10;99.90;;;;;;7394182;19;20356;-81
2021/11/07 01:08:33;;;;;;;4.60;4.20;;;7.00;99.90;;;;;;7348382;19;20335;-81
2021/11/07 01:12:21;;;;;;;6.15;4.30;;;7.10;99.90;;;;;;7323607;19;20372;-80
2021/11/07 01:16:00;;;;;;;7.70;4.63;;;7.10;99.90;;;;;;7426335;19;20353;-80
2021/11/07 01:19:17;;;;;;;;;;;;;;;;;;;;;
2021/11/07 01:38:45;;;;;;;5.35;4.32;;;7.10;99.90;;;;;;7424573;19;20744;-81
2021/11/07 01:48:22;;;;;;;4.60;4.18;;;7.00;99.90;;;;;;7381214;19;20328;-80
2021/11/07 01:59:20;;;;;;;4.68;4.28;;;7.00;99.90;;;;;;7424134;19;20344;-81
2021/11/07 02:07:02;;;;;;;4.55;3.78;;;7.10;99.90;;;;;;7425088;19;20349;-80
2021/11/07 02:18:15;;;;;;;4.30;3.90;;;6.90;99.90;;;;;;7432539;19;20348;-81
2021/11/07 02:45:28;;;;;;;3.70;3.40;;;6.90;99.90;;;;;;7410347;19;20398;-80
2021/11/07 02:52:32;;;;;;;3.58;3.28;;;6.80;99.90;;;;;;7310583;19;2004482;-81
2021/11/07 03:00:05;;;;;;;3.92;3.58;;;6.90;99.90;;;;;;7346963;19;20758;-80
2021/11/07 03:06:53;;;;;;;3.70;3.15;;;7.00;99.90;;;;;;7421581;19;20356;-80
2021/11/07 03:26:43;;;;;;;3.30;3.00;;;7.10;99.90;;;;;;7307367;19;20361;-79
2021/11/07 07:14:10;;;;;;;2.55;2.28;;;8.40;99.90;;;;;;7402691;19;20356;-81
2021/11/07 08:08:07;;;;;;;2.30;2.10;;;8.50;99.90;;;;;;7391087;19;20347;-80
2021/11/07 08:14:14;;;;;;;2.57;2.37;;;8.50;99.90;;;;;;7369380;19;20310;-79
2021/11/07 08:23:32;;;;;;;2.70;2.50;;;8.40;99.90;;;;;;7414880;19;20356;-80
2021/11/07 08:26:20;;;;;;;5.77;2.63;;;8.40;99.90;;;;;;7392667;19;20388;-80
2021/11/07 09:03:30;;;;;;;2.90;2.47;;;8.40;99.90;;;;;;7331496;19;20364;-81
2021/11/07 09:57:21;;;;;;;3.63;2.53;;;9.20;99.90;;;;;;7358907;19;20316;-80
2021/11/07 10:10:54;;;;;;;3.20;2.00;;;9.10;99.90;;;;;;7393478;19;20350;-81
2021/11/07 10:18:15;;;;;;;2.95;2.60;;;9.20;99.90;;;;;;7411264;19;20465;-80
2021/11/07 10:25:29;;;;;;;2.10;2.00;;;9.40;99.90;;;;;;7312556;19;2004497;-80
2021/11/07 10:32:14;;;;;;;2.13;2.03;;;9.50;99.90;;;;;;7398797;19;20323;-79
2021/11/07 10:52:33;;;;;;;2.38;2.17;;;9.30;99.90;;;;;;7184458;19;2004435;-80
2021/11/07 10:55:42;;;;;;;2.72;2.53;;;9.30;99.90;;;;;;7182677;19;2004901;-80
2021/11/07 10:59:31;;;;;;;2.38;2.17;;;9.20;99.90;;;;;;7280166;19;2005081;-80
2021/11/07 11:02:47;;;;;;;2.60;2.30;;;9.00;99.90;;;;;;7235711;19;2004578;-81
2021/11/07 11:06:18;;;;;;;2.40;2.20;;;9.00;99.90;;;;;;7288587;19;2004439;-80
2021/11/07 11:09:46;;;;;;;2.30;2.10;;;9.10;99.90;;;;;;7277929;19;2004535;-80
2021/11/07 11:13:49;;;;;;;2.93;2.67;;;9.20;99.90;;;;;;7276227;19;2004776;-81
2021/11/07 11:20:28;;;;;;;3.55;2.28;;;9.00;99.90;;;;;;7181727;19;2004450;-81
2021/11/07 11:23:56;;;;;;;4.57;2.35;;;8.90;99.90;;;;;;7158018;19;2004349;-80
2021/11/07 11:26:57;;;;;;;2.70;2.50;;;8.80;99.90;;;;;;7259087;19;2005228;-79
2021/11/07 11:46:55;;;;;;;1.90;1.80;;;8.80;99.90;;;;;;7373275;19;20353;-79
2021/11/07 11:51:23;;;;;;;2.50;2.30;;;8.70;99.90;;;;;;7145895;19;2004478;-80
2021/11/07 11:56:26;;;;;;;2.67;2.10;;;8.70;99.90;;;;;;7218772;19;2007496;-80
2021/11/07 12:06:09;;;;;;;1.85;1.75;;;8.70;99.90;;;;;;7254820;19;2004418;-80
2021/11/07 12:09:55;;;;;;;1.92;1.73;;;8.80;99.90;;;;;;7376551;19;20721;-80
2021/11/07 12:12:28;;;;;;;1.80;1.70;;;8.80;99.90;;;;;;7330182;19;20331;-79
2021/11/07 12:15:36;;;;;;;2.25;1.98;;;8.90;99.90;;;;;;7244781;19;2004549;-79
2021/11/07 12:18:52;;;;;;;1.67;1.58;;;8.90;99.90;;;;;;7367082;19;20333;-79
2021/11/07 12:22:11;;;;;;;1.40;1.33;;;8.90;99.90;;;;;;7234199;19;2004419;-80
2021/11/07 12:50:03;;;;;;;;;;;;;;;;;;;;;
2021/11/07 12:52:53;;;;;;;1.30;1.20;;;9.00;99.90;;;;;;7406711;19;20344;-80
2021/11/07 12:56:06;;;;;;;1.30;1.20;;;8.70;99.90;;;;;;7350075;19;20382;-81
2021/11/07 13:02:51;;;;;;;1.13;1.08;;;9.10;99.90;;;;;;7412800;19;20462;-79
2021/11/07 13:09:22;;;;;;;1.00;0.90;;;9.00;99.90;;;;;;7411682;19;20358;-80
2021/11/07 13:12:54;;;;;;;1.00;1.00;;;8.90;99.90;;;;;;7390720;19;20345;-79
2021/11/07 17:10:14;;;;;;;2.00;1.30;;;7.00;99.90;;;;;;7370730;19;20360;-81
2021/11/07 17:14:21;;;;;;;1.40;1.30;;;7.10;99.90;;;;;;7194473;19;2004385;-79
2021/11/07 17:33:00;;;;;;;1.50;1.40;;;7.50;99.90;;;;;;7375337;19;20333;-78
2021/11/07 17:35:33;;;;;;;1.63;1.52;;;7.50;99.90;;;;;;7254805;19;2004264;-79
2021/11/07 17:41:24;;;;;;;1.80;1.70;;;7.40;99.90;;;;;;7262540;19;2004643;-79
2021/11/07 17:49:45;;;;;;;2.67;1.30;;;7.30;99.90;;;;;;7271732;19;2007633;-78
2021/11/07 17:54:59;;;;;;;2.45;2.25;;;7.30;99.90;;;;;;7262121;19;2008229;-78
2021/11/07 17:57:26;;;;;;;1.70;1.60;;;7.30;99.90;;;;;;7351046;19;20361;-78
2021/11/07 17:59:56;;;;;;;1.63;1.52;;;7.20;99.90;;;;;;7368025;19;20343;-78
2021/11/07 18:02:23;;;;;;;1.58;1.35;;;7.20;99.90;;;;;;7366993;19;20860;-78
2021/11/07 18:04:51;;;;;;;1.70;1.60;;;7.10;99.90;;;;;;7362434;19;20707;-78
2021/11/07 18:07:21;;;;;;;1.63;1.52;;;7.10;99.90;;;;;;7365850;19;20430;-79
2021/11/07 18:09:51;;;;;;;1.45;1.38;;;7.10;99.90;;;;;;7365228;19;20877;-79
2021/11/07 18:12:18;;;;;;;1.52;1.42;;;7.10;99.90;;;;;;7368555;19;20330;-79
2021/11/07 18:14:45;;;;;;;2.22;1.65;;;7.00;99.90;;;;;;7363069;19;21434;-78
2021/11/07 18:17:14;;;;;;;1.60;1.50;;;7.00;99.90;;;;;;7371822;19;20396;-79
2021/11/07 18:19:40;;;;;;;1.60;1.50;;;7.00;99.90;;;;;;7369436;19;20301;-78
2021/11/07 18:22:19;;;;;;;1.90;1.70;;;7.00;99.90;;;;;;7371834;19;20476;-79
2021/11/07 18:24:56;;;;;;;2.17;1.83;;;7.00;99.90;;;;;;7360557;19;20333;-79
2021/11/07 18:27:25;;;;;;;1.70;1.60;;;6.90;99.90;;;;;;7344438;19;20309;-79
2021/11/07 18:29:54;;;;;;;1.55;1.45;;;6.90;99.90;;;;;;7360451;19;20381;-79
2021/11/07 18:32:20;;;;;;;1.65;1.55;;;6.90;99.90;;;;;;7365284;19;20362;-79
2021/11/07 18:34:47;;;;;;;1.70;1.60;;;6.90;99.90;;;;;;7365429;19;20344;-79
2021/11/07 18:37:14;;;;;;;1.60;1.50;;;6.90;99.90;;;;;;7368575;19;20345;-79
2021/11/07 18:39:41;;;;;;;1.63;1.52;;;6.90;99.90;;;;;;7368512;19;20748;-79
2021/11/07 18:42:07;;;;;;;3.55;1.70;;;6.90;99.90;;;;;;7368684;19;20742;-79
2021/11/07 18:44:33;;;;;;;2.85;2.58;;;6.80;99.90;;;;;;7366307;19;20416;-79
2021/11/07 18:46:59;;;;;;;1.70;1.60;;;6.90;99.90;;;;;;7345555;19;20357;-80
2021/11/07 18:49:24;;;;;;;1.80;1.70;;;6.80;99.90;;;;;;7368504;19;20336;-81
2021/11/07 18:51:51;;;;;;;2.90;2.17;;;6.80;99.90;;;;;;7367181;19;20755;-80
2021/11/07 18:54:16;;;;;;;2.30;1.83;;;6.80;99.90;;;;;;7368328;19;21148;-80
2021/11/07 18:56:43;;;;;;;1.45;1.38;;;6.80;99.90;;;;;;7315100;19;20313;-79
2021/11/07 18:59:09;;;;;;;1.60;1.50;;;6.80;99.90;;;;;;7374849;19;20890;-79
2021/11/07 19:01:35;;;;;;;2.00;1.70;;;6.70;99.90;;;;;;7371358;19;20839;-79
2021/11/07 19:04:01;;;;;;;3.22;1.80;;;6.80;99.90;;;;;;7370699;19;20421;-79
2021/11/07 19:06:27;;;;;;;1.60;1.50;;;6.70;99.90;;;;;;7365513;19;21221;-79
2021/11/07 19:08:53;;;;;;;1.42;1.33;;;6.70;99.90;;;;;;7367585;19;20355;-78
2021/11/07 19:11:19;;;;;;;2.77;1.70;;;6.70;99.90;;;;;;7371986;19;20312;-78
2021/11/07 19:13:46;;;;;;;1.65;1.55;;;6.60;99.90;;;;;;7370362;19;20309;-79
2021/11/07 19:16:12;;;;;;;1.45;1.35;;;6.60;99.90;;;;;;7368103;19;20652;-80
2021/11/07 19:18:39;;;;;;;1.98;1.80;;;6.60;99.90;;;;;;7369796;19;20324;-79
2021/11/07 19:21:05;;;;;;;1.83;1.67;;;6.60;99.90;;;;;;7370669;19;21035;-79
2021/11/07 19:23:30;;;;;;;1.92;1.48;;;6.60;99.90;;;;;;7368983;19;20776;-79
2021/11/07 19:25:56;;;;;;;1.85;1.67;;;6.50;99.90;;;;;;7366580;19;20333;-79
2021/11/07 19:28:22;;;;;;;4.20;1.60;;;6.60;99.90;;;;;;7368609;19;20398;-79
2021/11/07 19:30:48;;;;;;;2.10;1.40;;;6.60;99.90;;;;;;7366389;19;20432;-79
2021/11/07 19:33:15;;;;;;;1.52;1.42;;;6.60;99.90;;;;;;7365987;19;20353;-79
2021/11/07 19:35:41;;;;;;;2.33;1.65;;;6.50;99.90;;;;;;7368426;19;20391;-79
2021/11/07 19:38:07;;;;;;;1.80;1.70;;;6.50;99.90;;;;;;7363814;19;20407;-79
2021/11/07 19:40:34;;;;;;;1.50;1.40;;;6.50;99.90;;;;;;7370129;19;20381;-79
2021/11/07 19:43:01;;;;;;;1.70;1.60;;;6.50;99.90;;;;;;7365557;19;20352;-80
2021/11/07 19:45:29;;;;;;;2.17;1.80;;;6.40;99.90;;;;;;7365779;19;20422;-79
2021/11/07 19:47:58;;;;;;;2.30;2.13;;;6.40;99.90;;;;;;7365089;19;20703;-79
2021/11/07 19:50:26;;;;;;;1.60;1.50;;;6.40;99.90;;;;;;7347471;19;20416;-79
2021/11/07 19:52:53;;;;;;;1.80;1.70;;;6.40;99.90;;;;;;7368792;19;20354;-79
2021/11/07 19:55:19;;;;;;;2.97;2.35;;;6.40;99.90;;;;;;7368419;19;20337;-80
2021/11/07 19:57:46;;;;;;;3.80;1.90;;;6.40;99.90;;;;;;7370281;19;20342;-80
2021/11/07 20:00:26;;;;;;;2.15;1.92;;;6.50;99.90;;;;;;7369740;19;20321;-80
2021/11/07 20:10:34;;;;;;;1.80;1.70;;;6.60;99.90;;;;;;7368549;19;20309;-81
2021/11/07 20:13:00;;;;;;;2.50;1.70;;;6.60;99.90;;;;;;7275835;19;2008497;-81
2021/11/07 20:15:27;;;;;;;4.03;1.67;;;6.60;99.90;;;;;;7353623;19;20348;-80
2021/11/07 20:17:53;;;;;;;1.80;1.70;;;6.60;99.90;;;;;;7368028;19;20684;-81
2021/11/07 20:20:19;;;;;;;1.63;1.52;;;6.70;99.90;;;;;;7370929;19;20316;-80
2021/11/07 20:22:48;;;;;;;1.75;1.35;;;6.70;99.90;;;;;;7367042;19;20340;-80
2021/11/07 20:25:16;;;;;;;1.80;1.65;;;6.70;99.90;;;;;;7363453;19;20368;-81
2021/11/07 20:27:47;;;;;;;4.65;1.67;;;6.70;99.90;;;;;;7365728;19;20718;-80
2021/11/07 20:30:14;;;;;;;1.60;1.50;;;6.70;99.90;;;;;;7364117;19;20416;-80
2021/11/07 20:32:42;;;;;;;2.25;1.67;;;6.70;99.90;;;;;;7346430;19;20365;-81
2021/11/07 20:35:11;;;;;;;1.70;1.60;;;6.60;99.90;;;;;;7379780;19;20674;-82
2021/11/07 20:37:39;;;;;;;3.30;2.10;;;6.60;99.90;;;;;;7378720;19;20337;-82
2021/11/07 20:40:10;;;;;;;3.70;1.80;;;6.60;99.90;;;;;;7376542;19;20873;-82
2021/11/07 20:42:39;;;;;;;2.25;1.63;;;6.60;99.90;;;;;;7380781;19;20352;-81
2021/11/07 20:45:17;;;;;;;2.17;1.55;;;6.60;99.90;;;;;;7385643;19;20308;-81
2021/11/07 20:47:49;;;;;;;2.67;1.98;;;6.60;99.90;;;;;;7272996;19;2008465;-79
2021/11/07 20:52:49;;;;;;;2.50;1.83;;;6.70;99.90;;;;;;7375645;19;21324;-78
2021/11/07 21:03:02;;;;;;;3.85;1.70;;;6.60;99.90;;;;;;7379011;19;20776;-79
2021/11/07 21:05:36;;;;;;;2.90;1.73;;;6.60;99.90;;;;;;7374651;19;20304;-79
2021/11/07 21:08:15;;;;;;;1.70;1.60;;;6.70;99.90;;;;;;7379552;19;20332;-79
2021/11/07 21:10:50;;;;;;;2.60;1.60;;;6.60;99.90;;;;;;7378768;19;20344;-80
2021/11/07 21:13:18;;;;;;;1.50;1.40;;;6.70;99.90;;;;;;7382461;19;20325;-80
2021/11/07 21:16:03;;;;;;;3.85;1.52;;;6.70;99.90;;;;;;7385484;19;20789;-80
2021/11/07 21:18:36;;;;;;;1.63;1.52;;;6.70;99.90;;;;;;7388914;19;21107;-78
2021/11/07 21:26:25;;;;;;;1.45;1.30;;;6.70;99.90;;;;;;7392075;19;20852;-78
2021/11/07 21:28:54;;;;;;;2.67;1.65;;;6.70;99.90;;;;;;7393057;19;20353;-79
2021/11/07 21:31:23;;;;;;;1.83;1.67;;;6.80;99.90;;;;;;7387499;19;20957;-79
2021/11/07 21:33:56;;;;;;;2.05;1.80;;;6.70;99.90;;;;;;7388196;19;20848;-80
2021/11/07 21:39:06;;;;;;;1.63;1.52;;;6.70;99.90;;;;;;7390674;19;20899;-79
2021/11/07 21:41:40;;;;;;;3.00;1.90;;;6.80;99.90;;;;;;7387173;19;20732;-79
2021/11/07 21:44:09;;;;;;;2.03;1.70;;;6.80;99.90;;;;;;7386832;19;20352;-79
2021/11/07 21:46:37;;;;;;;1.40;1.30;;;6.70;99.90;;;;;;7382140;19;20351;-79
2021/11/07 21:49:04;;;;;;;2.30;1.75;;;6.70;99.90;;;;;;7380144;19;20329;-79
2021/11/07 21:51:30;;;;;;;2.20;1.67;;;6.70;99.90;;;;;;7378439;19;20349;-79
2021/11/07 21:53:56;;;;;;;1.50;1.40;;;6.70;99.90;;;;;;7379001;19;20468;-80
2021/11/07 21:56:22;;;;;;;2.53;1.40;;;6.70;99.90;;;;;;7390323;19;20332;-80
2021/11/07 21:58:48;;;;;;;2.47;1.60;;;6.60;99.90;;;;;;7384709;19;20349;-81
2021/11/07 22:01:14;;;;;;;2.20;1.42;;;6.60;99.90;;;;;;7384449;19;20336;-80
2021/11/07 22:03:40;;;;;;;1.43;1.33;;;6.70;99.90;;;;;;7382057;19;20324;-80
2021/11/07 22:06:06;;;;;;;1.83;1.60;;;6.70;99.90;;;;;;7378194;19;20346;-80
2021/11/07 22:08:32;;;;;;;1.25;1.15;;;6.70;99.90;;;;;;7380985;19;20341;-80
2021/11/07 22:10:58;;;;;;;1.38;1.27;;;6.70;99.90;;;;;;7380985;19;20964;-80
2021/11/07 22:13:26;;;;;;;5.23;1.50;;;6.70;99.90;;;;;;7380132;19;20868;-80
2021/11/07 22:18:30;;;;;;;1.83;1.40;;;6.70;99.90;;;;;;7278280;19;2010806;-80
2021/11/07 22:21:06;;;;;;;1.70;1.48;;;6.70;99.90;;;;;;7378269;19;20404;-80
2021/11/07 22:23:56;;;;;;;1.70;1.40;;;6.70;99.90;;;;;;7382368;19;20340;-80
2021/11/07 22:26:28;;;;;;;2.27;1.53;;;6.80;99.90;;;;;;7372589;19;20324;-80
2021/11/07 22:29:05;;;;;;;1.88;1.40;;;6.80;99.90;;;;;;7379453;19;20332;-81
2021/11/07 22:31:35;;;;;;;2.67;1.60;;;6.90;99.90;;;;;;7373385;19;20313;-80
2021/11/07 22:34:02;;;;;;;2.97;1.90;;;6.80;99.90;;;;;;7380392;19;20352;-80
2021/11/07 22:36:35;;;;;;;2.42;1.40;;;6.80;99.90;;;;;;7387367;19;20745;-80
2021/11/07 22:39:02;;;;;;;2.97;1.70;;;6.80;99.90;;;;;;7389758;19;20355;-80
2021/11/07 22:41:29;;;;;;;2.22;1.65;;;6.80;99.90;;;;;;7385764;19;20312;-80
2021/11/07 22:43:59;;;;;;;1.73;1.30;;;6.80;99.90;;;;;;7376507;19;20962;-81
2021/11/07 22:46:26;;;;;;;2.58;1.30;;;6.80;99.90;;;;;;7377474;19;20426;-80
2021/11/07 22:48:53;;;;;;;2.88;1.70;;;6.80;99.90;;;;;;7381358;19;20324;-80
2021/11/07 22:57:02;;;;;;;3.20;1.67;;;6.80;99.90;;;;;;7280537;19;2004344;-81
2021/11/07 23:02:14;;;;;;;2.70;1.63;;;6.80;99.90;;;;;;7382669;19;20438;-80
2021/11/07 23:04:44;;;;;;;2.10;1.48;;;6.80;99.90;;;;;;7280718;19;2008865;-80
2021/11/07 23:07:13;;;;;;;2.00;1.67;;;6.60;99.90;;;;;;7382982;19;20340;-80
2021/11/07 23:12:06;;;;;;;1.63;1.53;;;6.70;99.90;;;;;;7380930;19;20362;-80
2021/11/07 23:14:34;;;;;;;1.83;1.60;;;6.80;99.90;;;;;;7375178;19;20347;-79
2021/11/07 23:17:08;;;;;;;4.15;2.03;;;6.80;99.90;;;;;;7377153;19;20348;-80
2021/11/07 23:19:45;;;;;;;5.85;1.67;;;6.80;99.90;;;;;;7377617;19;20345;-80
2021/11/07 23:22:24;;;;;;;3.72;1.95;;;6.80;99.90;;;;;;7376071;19;20360;-80
2021/11/07 23:24:50;;;;;;;2.60;1.40;;;6.80;99.90;;;;;;7373104;19;20343;-79
2021/11/07 23:27:16;;;;;;;4.07;1.90;;;6.70;99.90;;;;;;7376880;19;20344;-79
2021/11/07 23:29:42;;;;;;;1.87;1.50;;;6.70;99.90;;;;;;7374622;19;20939;-80
2021/11/07 23:32:08;;;;;;;1.85;1.50;;;6.80;99.90;;;;;;7377915;19;20432;-80
2021/11/07 23:34:34;;;;;;;1.60;1.50;;;6.60;99.90;;;;;;7375051;19;20381;-80
2021/11/07 23:37:07;;;;;;;1.90;1.60;;;6.60;99.90;;;;;;7377026;19;21215;-80
2021/11/07 23:39:32;;;;;;;4.75;1.60;;;6.50;99.90;;;;;;7376060;19;20353;-79
2021/11/07 23:41:58;;;;;;;2.10;1.58;;;6.60;99.90;;;;;;7378580;19;20336;-79
2021/11/07 23:44:24;;;;;;;3.15;1.80;;;6.60;99.90;;;;;;7376018;19;20373;-80
2021/11/07 23:46:52;;;;;;;3.20;1.90;;;6.60;99.90;;;;;;7357305;19;20345;-80
2021/11/07 23:49:18;;;;;;;2.38;1.73;;;6.60;99.90;;;;;;7375602;19;20316;-80
2021/11/07 23:54:12;;;;;;;2.70;1.90;;;6.60;99.90;;;;;;7373328;19;20478;-80
2021/11/07 23:56:46;;;;;;;3.53;1.80;;;6.60;99.90;;;;;;7360180;19;20312;-78
2021/11/07 23:59:14;;;;;;;3.40;1.80;;;6.60;99.90;;;;;;7375307;19;20394;-80
